Time;durP1;ratioP1;P1;durP2;ratioP2;P2;SDS_P1;SDS_P2;PMS_P1;PMS_P2;Temp;Humidity;BMP_temperature;BMP_pressure;BME280_temperature;BME280_humidity;BME280_pressure;Samples;Min_cycle;Max_cycle;Signal;HPM_P1;HPM_P2
2022/05/05 00:02:27;;;;;;;7.22;4.68;;;;;;;;;;10359711;28;20075;-62
2022/05/05 00:07:25;;;;;;;9.05;4.05;;;;;;;;;;10359441;28;20076;-65
2022/05/05 00:17:40;;;;;;;6.38;5.18;;;;;;;;;;10359015;28;20044;-64
2022/05/05 00:22:39;;;;;;;7.80;6.50;;;;;;;;;;10359040;28;20082;-64
2022/05/05 00:27:38;;;;;;;7.53;4.68;;;;;;;;;;10357660;28;20048;-64
2022/05/05 00:32:36;;;;;;;7.13;6.43;;;;;;;;;;10358577;28;20074;-64
2022/05/05 00:37:35;;;;;;;11.50;7.95;;;;;;;;;;10358262;28;20096;-64
2022/05/05 00:42:33;;;;;;;10.15;8.07;;;;;;;;;;10358232;28;20079;-64
2022/05/05 00:47:33;;;;;;;10.88;7.70;;;;;;;;;;10357768;28;20526;-64
2022/05/05 00:52:31;;;;;;;8.48;7.63;;;;;;;;;;10357698;28;20052;-64
2022/05/05 00:57:29;;;;;;;12.07;8.27;;;;;;;;;;10357571;28;20075;-64
2022/05/05 01:02:27;;;;;;;9.32;7.10;;;;;;;;;;10357626;28;20079;-64
2022/05/05 01:07:27;;;;;;;9.32;7.50;;;;;;;;;;10355536;28;20102;-64
2022/05/05 01:12:29;;;;;;;9.98;7.47;;;;;;;;;;10356957;28;20052;-64
2022/05/05 01:17:27;;;;;;;8.52;7.72;;;;;;;;;;10356428;28;20070;-64
2022/05/05 01:22:27;;;;;;;8.55;7.07;;;;;;;;;;10356750;28;20043;-64
2022/05/05 01:32:40;;;;;;;9.00;7.70;;;;;;;;;;10356685;28;20454;-64
2022/05/05 01:37:40;;;;;;;10.85;7.40;;;;;;;;;;10356462;28;20072;-64
2022/05/05 01:42:39;;;;;;;8.23;7.53;;;;;;;;;;10355795;28;20106;-64
2022/05/05 01:47:40;;;;;;;11.48;7.00;;;;;;;;;;10356270;28;20079;-64
2022/05/05 01:52:40;;;;;;;12.77;7.35;;;;;;;;;;10355926;28;20521;-64
2022/05/05 01:57:38;;;;;;;8.82;7.72;;;;;;;;;;10356017;28;20480;-64
2022/05/05 02:02:36;;;;;;;10.95;8.15;;;;;;;;;;10355823;28;20416;-64
2022/05/05 02:07:35;;;;;;;9.60;8.15;;;;;;;;;;10355585;28;20074;-64
2022/05/05 02:12:36;;;;;;;8.85;7.95;;;;;;;;;;10355371;28;20079;-64
2022/05/05 02:17:34;;;;;;;13.02;8.30;;;;;;;;;;10355157;28;20067;-64
2022/05/05 02:22:33;;;;;;;12.88;7.30;;;;;;;;;;10355132;28;20036;-64
2022/05/05 02:27:31;;;;;;;10.40;7.63;;;;;;;;;;10355806;28;20075;-64
2022/05/05 02:32:30;;;;;;;12.82;7.82;;;;;;;;;;10363378;28;20072;-64
2022/05/05 02:42:44;;;;;;;10.45;7.95;;;;;;;;;;10363079;28;20086;-64
2022/05/05 02:47:45;;;;;;;10.70;8.85;;;;;;;;;;10363110;28;20083;-63
2022/05/05 02:52:43;;;;;;;9.27;8.15;;;;;;;;;;10363392;28;20074;-64
2022/05/05 02:57:41;;;;;;;9.63;7.82;;;;;;;;;;10362742;28;20060;-64
2022/05/05 03:02:41;;;;;;;10.55;9.30;;;;;;;;;;10362357;28;20082;-64
2022/05/05 03:07:42;;;;;;;12.80;9.70;;;;;;;;;;10360203;28;20087;-63
2022/05/05 03:12:40;;;;;;;15.48;9.40;;;;;;;;;;10362054;28;20082;-63
2022/05/05 03:17:39;;;;;;;9.13;8.20;;;;;;;;;;10363181;28;20410;-63
2022/05/05 03:22:37;;;;;;;11.52;8.63;;;;;;;;;;10362584;28;20040;-63
2022/05/05 03:27:39;;;;;;;12.00;9.38;;;;;;;;;;10362087;28;20052;-63
2022/05/05 03:32:40;;;;;;;11.65;9.27;;;;;;;;;;10355961;28;20485;-63
2022/05/05 03:37:38;;;;;;;14.18;10.60;;;;;;;;;;10360948;28;20074;-63
2022/05/05 03:42:38;;;;;;;13.07;9.65;;;;;;;;;;10360101;28;20075;-64
2022/05/05 03:47:36;;;;;;;15.75;9.80;;;;;;;;;;10359650;28;20071;-63
2022/05/05 03:52:34;;;;;;;17.27;10.10;;;;;;;;;;10359703;28;20071;-63
2022/05/05 03:57:33;;;;;;;14.10;11.20;;;;;;;;;;10360027;28;20079;-63
2022/05/05 04:02:33;;;;;;;18.25;11.55;;;;;;;;;;10359712;28;20063;-63
2022/05/05 04:07:31;;;;;;;9.00;6.55;;;;;;;;;;10359302;28;20079;-63
2022/05/05 04:12:29;;;;;;;11.40;7.32;;;;;;;;;;10358690;28;20086;-63
2022/05/05 04:17:27;;;;;;;12.98;7.10;;;;;;;;;;10358361;28;20063;-63
2022/05/05 04:22:27;;;;;;;12.18;6.85;;;;;;;;;;10357236;28;20503;-62
2022/05/05 04:27:26;;;;;;;10.68;8.07;;;;;;;;;;10355109;28;20473;-63
2022/05/05 04:32:24;;;;;;;10.30;8.43;;;;;;;;;;10352020;28;20056;-63
2022/05/05 04:37:22;;;;;;;11.20;7.85;;;;;;;;;;10357275;28;20052;-63
2022/05/05 04:42:22;;;;;;;7.50;6.03;;;;;;;;;;10355991;28;20072;-63
2022/05/05 04:47:20;;;;;;;12.85;6.82;;;;;;;;;;10357171;28;20076;-63
2022/05/05 04:52:18;;;;;;;11.23;6.55;;;;;;;;;;10345273;28;20071;-64
2022/05/05 04:57:17;;;;;;;11.00;6.32;;;;;;;;;;10350314;28;20043;-63
2022/05/05 05:02:16;;;;;;;10.35;7.70;;;;;;;;;;10353546;28;20488;-63
2022/05/05 05:07:15;;;;;;;11.45;9.30;;;;;;;;;;10353902;28;20487;-63
2022/05/05 05:12:13;;;;;;;13.70;9.90;;;;;;;;;;10354684;28;20083;-64
2022/05/05 05:17:11;;;;;;;15.40;9.68;;;;;;;;;;10354532;28;20071;-64
2022/05/05 05:22:11;;;;;;;12.98;10.32;;;;;;;;;;10354755;28;20068;-63
2022/05/05 05:27:09;;;;;;;15.05;9.82;;;;;;;;;;10355280;28;20333;-64
2022/05/05 05:32:08;;;;;;;16.90;10.98;;;;;;;;;;10353040;28;20512;-64
2022/05/05 05:37:06;;;;;;;18.85;10.38;;;;;;;;;;10355136;28;20504;-64
2022/05/05 05:42:07;;;;;;;18.15;10.38;;;;;;;;;;10356272;28;20062;-64
2022/05/05 05:47:05;;;;;;;14.07;10.35;;;;;;;;;;10355402;28;20052;-64
2022/05/05 05:52:04;;;;;;;20.13;11.50;;;;;;;;;;10353949;28;20067;-64
2022/05/05 05:57:02;;;;;;;16.30;11.63;;;;;;;;;;10353503;28;20540;-64
2022/05/05 06:07:23;;;;;;;15.00;10.70;;;;;;;;;;10344851;28;20068;-64
2022/05/05 06:12:21;;;;;;;13.27;11.75;;;;;;;;;;10351859;28;20060;-64
2022/05/05 06:17:21;;;;;;;20.77;11.98;;;;;;;;;;10352007;28;20063;-64
2022/05/05 06:22:19;;;;;;;19.25;11.50;;;;;;;;;;10348598;28;20070;-64
2022/05/05 06:27:17;;;;;;;15.82;13.90;;;;;;;;;;10348971;28;20059;-64
2022/05/05 06:32:17;;;;;;;15.70;12.00;;;;;;;;;;10343822;28;20076;-64
2022/05/05 06:37:16;;;;;;;14.25;10.85;;;;;;;;;;10354342;28;20409;-64
2022/05/05 06:42:15;;;;;;;13.10;9.48;;;;;;;;;;10348846;28;20694;-64
2022/05/05 06:47:13;;;;;;;12.38;9.60;;;;;;;;;;10346937;28;20068;-64
2022/05/05 06:52:11;;;;;;;13.27;9.88;;;;;;;;;;10350744;28;20504;-63
2022/05/05 06:57:32;;;;;;;14.75;9.18;;;;;;;;;;10349802;28;20055;-64
2022/05/05 07:02:30;;;;;;;12.82;9.57;;;;;;;;;;10354822;28;20080;-63
2022/05/05 07:07:29;;;;;;;13.63;10.27;;;;;;;;;;10354137;28;20051;-63
2022/05/05 07:12:27;;;;;;;14.23;9.48;;;;;;;;;;10353466;28;20484;-63
2022/05/05 07:17:27;;;;;;;12.98;9.48;;;;;;;;;;10359229;28;20463;-63
2022/05/05 07:22:25;;;;;;;12.90;9.63;;;;;;;;;;10361048;28;20059;-64
2022/05/05 07:27:24;;;;;;;11.23;8.40;;;;;;;;;;10361262;28;20412;-63
2022/05/05 07:32:22;;;;;;;9.02;8.18;;;;;;;;;;10360669;28;20488;-64
2022/05/05 07:37:21;;;;;;;20.45;16.20;;;;;;;;;;10360545;28;20071;-64
2022/05/05 07:42:20;;;;;;;13.10;9.30;;;;;;;;;;10354522;28;20099;-64
2022/05/05 07:47:18;;;;;;;9.38;8.43;;;;;;;;;;10355341;28;20055;-63
2022/05/05 07:52:16;;;;;;;11.27;7.10;;;;;;;;;;10361726;28;20075;-64
2022/05/05 07:57:17;;;;;;;8.45;6.97;;;;;;;;;;10361434;28;20063;-64
2022/05/05 08:02:16;;;;;;;10.15;6.03;;;;;;;;;;10360246;28;20079;-64
2022/05/05 08:07:14;;;;;;;5.20;4.43;;;;;;;;;;10360017;28;20036;-65
2022/05/05 08:12:12;;;;;;;9.50;5.07;;;;;;;;;;10359342;28;20079;-63
2022/05/05 08:17:12;;;;;;;12.48;6.22;;;;;;;;;;10359211;28;20040;-64
2022/05/05 08:22:11;;;;;;;6.85;5.50;;;;;;;;;;10359175;28;20090;-63
2022/05/05 08:32:27;;;;;;;6.70;4.20;;;;;;;;;;10352974;28;20473;-64
2022/05/05 08:37:25;;;;;;;4.72;4.15;;;;;;;;;;10358828;28;20079;-63
2022/05/05 08:42:24;;;;;;;4.50;3.35;;;;;;;;;;10358320;28;20094;-64
2022/05/05 08:47:24;;;;;;;7.72;4.20;;;;;;;;;;10358266;28;20083;-63
2022/05/05 08:52:25;;;;;;;8.23;3.95;;;;;;;;;;10357967;28;20071;-64
2022/05/05 08:57:23;;;;;;;4.18;3.78;;;;;;;;;;10357784;28;20072;-64
2022/05/05 09:02:21;;;;;;;5.72;4.78;;;;;;;;;;10358141;28;20083;-64
2022/05/05 09:07:20;;;;;;;7.63;4.32;;;;;;;;;;10357703;28;20036;-64
2022/05/05 09:12:21;;;;;;;5.07;3.58;;;;;;;;;;10350825;28;20079;-65
2022/05/05 09:17:21;;;;;;;6.28;4.00;;;;;;;;;;10350982;28;20071;-64
2022/05/05 09:22:20;;;;;;;5.90;4.05;;;;;;;;;;10350425;28;20074;-64
2022/05/05 09:27:24;;;;;;;6.22;3.60;;;;;;;;;;10350525;28;20044;-64
2022/05/05 09:32:27;;;;;;;5.53;3.23;;;;;;;;;;10350672;28;20079;-64
2022/05/05 09:37:25;;;;;;;5.18;3.53;;;;;;;;;;10356183;28;20306;-64
2022/05/05 09:42:41;;;;;;;3.03;2.63;;;;;;;;;;10356250;28;20489;-64
2022/05/05 09:47:39;;;;;;;6.18;2.70;;;;;;;;;;10356331;28;20075;-64
2022/05/05 09:57:55;;;;;;;6.65;3.03;;;;;;;;;;10355883;28;20075;-64
2022/05/05 10:08:14;;;;;;;3.13;1.92;;;;;;;;;;10349941;28;20146;-63
2022/05/05 10:13:15;;;;;;;3.38;1.70;;;;;;;;;;10354758;28;20072;-64
2022/05/05 10:18:13;;;;;;;5.20;2.80;;;;;;;;;;10355400;28;20181;-64
2022/05/05 10:23:14;;;;;;;6.97;2.65;;;;;;;;;;10355494;28;20044;-64
2022/05/05 10:28:31;;;;;;;6.07;2.35;;;;;;;;;;10355520;28;20060;-64
2022/05/05 10:33:44;;;;;;;4.10;2.60;;;;;;;;;;10355133;28;20096;-64
2022/05/05 10:38:43;;;;;;;12.18;2.38;;;;;;;;;;10355262;28;20048;-64
2022/05/05 10:43:41;;;;;;;6.57;2.22;;;;;;;;;;10355216;28;20064;-64
2022/05/05 10:48:40;;;;;;;6.43;2.70;;;;;;;;;;10355358;28;20051;-64
2022/05/05 10:53:41;;;;;;;4.43;2.10;;;;;;;;;;10362378;28;20075;-64
2022/05/05 10:59:01;;;;;;;3.20;2.15;;;;;;;;;;10362682;28;20087;-64
2022/05/05 11:04:24;;;;;;;7.82;2.25;;;;;;;;;;10362975;28;20086;-64
2022/05/05 11:09:29;;;;;;;3.95;2.08;;;;;;;;;;10360962;28;20512;-64
2022/05/05 11:25:09;;;;;;;3.70;2.20;;;;;;;;;;10362330;28;20461;-64
2022/05/05 11:30:13;;;;;;;3.22;2.40;;;;;;;;;;10361332;28;20071;-64
2022/05/05 11:35:12;;;;;;;6.88;2.58;;;;;;;;;;10357797;28;20081;-64
2022/05/05 11:40:12;;;;;;;5.53;2.67;;;;;;;;;;10360539;28;20079;-64
2022/05/05 11:45:12;;;;;;;3.75;2.42;;;;;;;;;;10360084;28;20540;-64
2022/05/05 11:50:11;;;;;;;4.45;3.63;;;;;;;;;;10360125;28;20059;-64
2022/05/05 11:55:11;;;;;;;7.18;3.95;;;;;;;;;;10358373;28;20478;-64
2022/05/05 12:05:27;;;;;;;4.55;2.83;;;;;;;;;;10359264;28;20075;-65
2022/05/05 12:10:33;;;;;;;5.13;2.33;;;;;;;;;;10360835;28;20154;-64
2022/05/05 12:15:33;;;;;;;9.88;2.58;;;;;;;;;;10360442;28;20064;-64
2022/05/05 12:20:33;;;;;;;6.43;2.50;;;;;;;;;;10354488;28;20446;-63
2022/05/05 12:25:31;;;;;;;3.55;2.70;;;;;;;;;;10358729;28;20044;-64
2022/05/05 12:30:30;;;;;;;5.45;2.55;;;;;;;;;;10358110;28;20091;-64
2022/05/05 12:35:31;;;;;;;3.05;2.60;;;;;;;;;;10358752;28;20059;-64
2022/05/05 12:40:31;;;;;;;3.80;2.80;;;;;;;;;;10353612;28;20102;-64
2022/05/05 12:45:31;;;;;;;5.03;3.20;;;;;;;;;;10358393;28;20076;-64
2022/05/05 12:50:33;;;;;;;6.70;3.15;;;;;;;;;;10357169;28;20087;-63
2022/05/05 13:00:50;;;;;;;6.07;3.55;;;;;;;;;;10357246;28;20542;-64
2022/05/05 13:06:11;;;;;;;3.38;2.97;;;;;;;;;;10349380;28;20083;-64
2022/05/05 13:11:22;;;;;;;5.65;3.30;;;;;;;;;;10354699;28;20091;-64
2022/05/05 13:16:20;;;;;;;2.78;2.50;;;;;;;;;;10356356;28;20072;-64
2022/05/05 13:21:18;;;;;;;5.10;3.60;;;;;;;;;;10357042;28;20504;-64
2022/05/05 13:26:17;;;;;;;4.38;3.00;;;;;;;;;;10356618;28;20382;-64
2022/05/05 13:31:18;;;;;;;6.68;3.75;;;;;;;;;;10357123;28;20257;-64
2022/05/05 13:36:16;;;;;;;4.43;3.22;;;;;;;;;;10356832;28;20083;-64
2022/05/05 13:41:14;;;;;;;5.95;2.97;;;;;;;;;;10356098;28;20677;-64
2022/05/05 13:46:12;;;;;;;4.97;2.78;;;;;;;;;;10356091;28;20044;-64
2022/05/05 13:51:13;;;;;;;6.57;4.07;;;;;;;;;;10356133;28;20505;-63
2022/05/05 13:56:12;;;;;;;5.28;4.75;;;;;;;;;;10354077;28;20063;-64
2022/05/05 14:01:10;;;;;;;4.55;3.05;;;;;;;;;;10353523;28;20067;-64
2022/05/05 14:06:18;;;;;;;4.85;3.08;;;;;;;;;;10354290;28;20043;-64
2022/05/05 14:16:31;;;;;;;10.88;6.22;;;;;;;;;;10347605;28;20516;-64
2022/05/05 14:21:31;;;;;;;6.80;4.40;;;;;;;;;;10349195;28;20079;-64
2022/05/05 14:26:29;;;;;;;5.65;4.05;;;;;;;;;;10355080;28;20099;-64
2022/05/05 14:31:28;;;;;;;7.55;3.45;;;;;;;;;;10363373;28;20510;-63
2022/05/05 14:36:26;;;;;;;7.78;4.13;;;;;;;;;;10363121;28;20079;-64
2022/05/05 14:41:25;;;;;;;7.18;4.43;;;;;;;;;;10362716;28;20063;-64
2022/05/05 14:46:24;;;;;;;8.50;3.97;;;;;;;;;;10362580;28;20063;-64
2022/05/05 14:51:28;;;;;;;6.38;3.00;;;;;;;;;;10362872;28;20457;-64
2022/05/05 14:56:28;;;;;;;5.43;3.45;;;;;;;;;;10363381;28;20044;-64
2022/05/05 15:01:26;;;;;;;6.57;3.20;;;;;;;;;;10362358;28;20051;-63
2022/05/05 15:06:24;;;;;;;7.20;4.22;;;;;;;;;;10362390;28;20071;-64
2022/05/05 15:11:24;;;;;;;3.78;2.92;;;;;;;;;;10361790;28;20091;-64
2022/05/05 15:16:23;;;;;;;5.15;2.25;;;;;;;;;;10361644;28;20047;-64
2022/05/05 15:21:22;;;;;;;4.35;2.90;;;;;;;;;;10361694;28;20043;-64
2022/05/05 15:26:22;;;;;;;3.25;2.78;;;;;;;;;;10360948;28;20076;-64
2022/05/05 15:31:21;;;;;;;4.22;2.33;;;;;;;;;;10359750;28;20449;-64
2022/05/05 15:36:21;;;;;;;2.75;2.10;;;;;;;;;;10360272;28;20080;-64
2022/05/05 15:41:19;;;;;;;3.10;2.30;;;;;;;;;;10361244;28;20071;-64
2022/05/05 15:46:18;;;;;;;4.43;2.40;;;;;;;;;;10360350;28;20075;-64
2022/05/05 15:51:17;;;;;;;9.15;2.40;;;;;;;;;;10360471;28;20075;-64
2022/05/05 15:56:16;;;;;;;8.20;2.83;;;;;;;;;;10360253;28;20090;-63
2022/05/05 16:01:15;;;;;;;10.10;7.30;;;;;;;;;;10360357;28;20086;-64
2022/05/05 16:06:13;;;;;;;19.05;13.15;;;;;;;;;;10359345;28;20052;-64
2022/05/05 16:11:11;;;;;;;10.15;4.97;;;;;;;;;;10357022;28;20083;-63
2022/05/05 16:16:11;;;;;;;3.42;2.90;;;;;;;;;;10349518;28;20071;-63
2022/05/05 16:21:10;;;;;;;6.45;3.00;;;;;;;;;;10355193;28;20075;-64
2022/05/05 16:31:26;;;;;;;6.72;3.45;;;;;;;;;;10357929;28;20119;-63
2022/05/05 16:36:24;;;;;;;7.72;3.42;;;;;;;;;;10354043;28;20068;-63
2022/05/05 16:41:22;;;;;;;7.43;3.13;;;;;;;;;;10354488;28;20067;-63
2022/05/05 16:46:21;;;;;;;3.92;3.10;;;;;;;;;;10355889;28;20084;-63
2022/05/05 16:51:22;;;;;;;10.75;4.43;;;;;;;;;;10349914;28;20072;-63
2022/05/05 16:56:20;;;;;;;9.55;4.57;;;;;;;;;;10357243;28;20409;-63
2022/05/05 17:01:18;;;;;;;13.30;4.60;;;;;;;;;;10357184;28;20116;-62
2022/05/05 17:06:17;;;;;;;6.90;4.53;;;;;;;;;;10357228;28;20068;-63
2022/05/05 17:11:16;;;;;;;9.48;3.72;;;;;;;;;;10356870;28;20519;-65
2022/05/05 17:16:15;;;;;;;7.70;5.60;;;;;;;;;;10355846;28;20067;-63
2022/05/05 17:21:13;;;;;;;10.55;6.75;;;;;;;;;;10356810;28;20071;-62
2022/05/05 17:26:11;;;;;;;12.38;6.32;;;;;;;;;;10356162;28;20139;-63
2022/05/05 17:31:11;;;;;;;13.27;8.95;;;;;;;;;;10355848;28;20516;-63
2022/05/05 17:36:09;;;;;;;18.73;9.13;;;;;;;;;;10353649;28;20040;-63
2022/05/05 17:41:08;;;;;;;10.48;4.90;;;;;;;;;;10353317;28;20044;-63
2022/05/05 17:51:24;;;;;;;4.93;3.60;;;;;;;;;;10355076;28;20047;-63
2022/05/05 17:56:22;;;;;;;11.43;4.00;;;;;;;;;;10355994;28;20048;-63
2022/05/05 18:01:20;;;;;;;6.63;3.83;;;;;;;;;;10354928;28;20079;-63
2022/05/05 18:06:25;;;;;;;7.53;3.28;;;;;;;;;;10353550;28;20094;-63
2022/05/05 18:11:24;;;;;;;5.90;3.28;;;;;;;;;;10355119;28;20538;-63
2022/05/05 18:16:22;;;;;;;3.53;2.40;;;;;;;;;;10354727;28;20082;-63
2022/05/05 18:21:21;;;;;;;6.40;2.92;;;;;;;;;;10354837;28;20420;-63
2022/05/05 18:26:21;;;;;;;6.72;3.13;;;;;;;;;;10355292;28;20488;-63
2022/05/05 18:31:19;;;;;;;3.60;2.70;;;;;;;;;;10355127;28;20063;-61
2022/05/05 18:36:17;;;;;;;8.85;3.70;;;;;;;;;;10354768;28;20072;-63
2022/05/05 18:41:16;;;;;;;5.57;3.55;;;;;;;;;;10355941;28;20128;-63
2022/05/05 18:46:16;;;;;;;5.45;3.00;;;;;;;;;;10354822;28;20048;-64
2022/05/05 18:51:16;;;;;;;4.72;2.40;;;;;;;;;;10355517;28;20071;-63
2022/05/05 18:56:14;;;;;;;3.92;2.70;;;;;;;;;;10347401;28;20079;-63
2022/05/05 19:01:18;;;;;;;5.00;3.00;;;;;;;;;;10354394;28;20083;-63
2022/05/05 19:06:19;;;;;;;7.75;3.22;;;;;;;;;;10354337;28;20040;-63
2022/05/05 19:11:17;;;;;;;3.45;3.08;;;;;;;;;;10355650;28;20086;-63
2022/05/05 19:16:16;;;;;;;6.75;2.72;;;;;;;;;;10361887;28;20079;-64
2022/05/05 19:21:14;;;;;;;4.60;2.65;;;;;;;;;;10361981;28;20493;-64
2022/05/05 19:26:14;;;;;;;7.03;3.30;;;;;;;;;;10361419;28;20044;-64
2022/05/05 19:31:12;;;;;;;5.07;3.15;;;;;;;;;;10361375;28;20522;-64
2022/05/05 19:36:11;;;;;;;8.18;2.65;;;;;;;;;;10360879;28;20068;-64
2022/05/05 19:41:11;;;;;;;4.18;2.63;;;;;;;;;;10358878;28;20071;-64
2022/05/05 19:46:11;;;;;;;5.95;3.20;;;;;;;;;;10358356;28;20083;-64
2022/05/05 20:02:58;;;;;;;3.35;2.45;;;;;;;;;;10360583;28;20075;-64
2022/05/05 20:07:56;;;;;;;4.93;2.67;;;;;;;;;;10357804;28;20094;-63
2022/05/05 20:12:55;;;;;;;3.60;2.50;;;;;;;;;;10356066;28;20087;-65
2022/05/05 20:17:53;;;;;;;4.57;2.50;;;;;;;;;;10349096;28;20079;-65
2022/05/05 20:22:53;;;;;;;4.15;2.47;;;;;;;;;;10357484;28;20072;-64
2022/05/05 20:28:02;;;;;;;7.82;2.90;;;;;;;;;;10356235;28;20081;-64
2022/05/05 20:33:00;;;;;;;3.47;2.25;;;;;;;;;;10356305;28;20547;-64
2022/05/05 20:38:00;;;;;;;4.75;2.63;;;;;;;;;;10357110;28;20063;-64
2022/05/05 20:42:58;;;;;;;6.88;2.72;;;;;;;;;;10356171;28;20067;-63
2022/05/05 20:47:57;;;;;;;5.05;2.60;;;;;;;;;;10356886;28;20079;-64
2022/05/05 20:52:55;;;;;;;4.60;2.85;;;;;;;;;;10356468;28;20087;-64
2022/05/05 20:57:55;;;;;;;8.52;3.03;;;;;;;;;;10356792;28;20083;-64
2022/05/05 21:02:53;;;;;;;6.72;3.15;;;;;;;;;;10356764;28;20064;-63
2022/05/05 21:07:52;;;;;;;3.97;2.30;;;;;;;;;;10357294;28;20072;-63
2022/05/05 21:12:50;;;;;;;2.50;2.20;;;;;;;;;;10357396;28;20083;-64
2022/05/05 21:17:50;;;;;;;6.22;2.55;;;;;;;;;;10356480;28;20068;-64
2022/05/05 21:28:04;;;;;;;6.65;2.72;;;;;;;;;;10356870;28;20075;-64
2022/05/05 21:33:04;;;;;;;4.85;2.70;;;;;;;;;;10355910;28;20094;-64
2022/05/05 21:38:03;;;;;;;10.38;2.63;;;;;;;;;;10356328;28;20082;-65
2022/05/05 21:43:01;;;;;;;5.50;2.55;;;;;;;;;;10356044;28;20075;-63
2022/05/05 21:47:59;;;;;;;3.90;2.67;;;;;;;;;;10356264;28;20074;-63
2022/05/05 21:52:59;;;;;;;6.65;2.97;;;;;;;;;;10355940;28;20083;-64
2022/05/05 21:57:57;;;;;;;8.15;3.17;;;;;;;;;;10357594;28;20071;-64
2022/05/05 22:02:55;;;;;;;5.50;3.42;;;;;;;;;;10356869;28;20070;-63
2022/05/05 22:07:53;;;;;;;10.60;3.42;;;;;;;;;;10355378;28;20062;-64
2022/05/05 22:12:53;;;;;;;3.15;2.60;;;;;;;;;;10355455;28;20083;-64
2022/05/05 22:17:52;;;;;;;4.55;2.65;;;;;;;;;;10355461;28;20515;-64
2022/05/05 22:22:50;;;;;;;13.20;3.60;;;;;;;;;;10354553;28;20071;-64
2022/05/05 22:27:48;;;;;;;3.13;2.65;;;;;;;;;;10355425;28;20071;-63
2022/05/05 22:32:48;;;;;;;3.78;3.03;;;;;;;;;;10355118;28;20083;-63
2022/05/05 22:37:47;;;;;;;4.85;2.90;;;;;;;;;;10355068;28;20504;-64
2022/05/05 22:42:45;;;;;;;5.00;2.30;;;;;;;;;;10354550;28;20108;-63
2022/05/05 22:47:44;;;;;;;7.88;3.13;;;;;;;;;;10360025;28;20076;-63
2022/05/05 22:52:43;;;;;;;4.82;2.63;;;;;;;;;;10362467;28;20093;-64
2022/05/05 22:57:42;;;;;;;4.28;2.88;;;;;;;;;;10362817;28;20075;-64
2022/05/05 23:02:40;;;;;;;3.70;2.50;;;;;;;;;;10362581;28;20078;-63
2022/05/05 23:07:38;;;;;;;4.35;2.50;;;;;;;;;;10362557;28;20583;-64
2022/05/05 23:12:38;;;;;;;6.47;2.50;;;;;;;;;;10361961;28;20313;-63
2022/05/05 23:17:37;;;;;;;4.30;2.58;;;;;;;;;;10361798;28;20078;-64
2022/05/05 23:22:35;;;;;;;3.60;2.63;;;;;;;;;;10361890;28;20043;-64
2022/05/05 23:27:34;;;;;;;4.22;2.20;;;;;;;;;;10360161;28;20202;-64
2022/05/05 23:32:33;;;;;;;8.52;3.47;;;;;;;;;;10361423;28;20071;-64
2022/05/05 23:37:32;;;;;;;4.38;2.53;;;;;;;;;;10360301;28;20071;-64
2022/05/05 23:42:30;;;;;;;4.40;2.40;;;;;;;;;;10361061;28;20036;-64
2022/05/05 23:47:28;;;;;;;3.35;2.72;;;;;;;;;;10360996;28;20466;-64
2022/05/05 23:52:28;;;;;;;29.05;3.92;;;;;;;;;;10359339;28;20405;-64
2022/05/05 23:57:27;;;;;;;3.72;2.30;;;;;;;;;;10359585;28;20060;-64
